createdAt,value
2018-05-12T00:00:36.464Z,9.50
2018-05-12T00:01:36.457Z,9.10
2018-05-12T00:02:36.447Z,9.40
2018-05-12T00:03:36.455Z,9.40
2018-05-12T00:04:36.444Z,10.60
2018-05-12T00:05:36.436Z,9.40
2018-05-12T00:06:36.429Z,9.60
2018-05-12T00:07:36.424Z,9.50
2018-05-12T00:08:36.416Z,9.60
2018-05-12T00:09:36.411Z,9.60
2018-05-12T00:10:36.407Z,9.50
2018-05-12T00:11:36.408Z,9.40
2018-05-12T00:12:36.401Z,9.20
2018-05-12T00:13:36.400Z,9.70
2018-05-12T00:14:36.389Z,9.40
2018-05-12T00:15:36.382Z,9.50
2018-05-12T00:16:36.388Z,9.20
2018-05-12T00:17:36.363Z,9.00
2018-05-12T00:18:36.382Z,9.50
2018-05-12T00:19:36.357Z,9.70
2018-05-12T00:20:36.348Z,9.40
2018-05-12T00:21:36.346Z,9.60
2018-05-12T00:22:36.344Z,9.60
2018-05-12T00:23:36.332Z,10.00
2018-05-12T00:24:36.339Z,9.40
2018-05-12T00:25:36.316Z,9.50
2018-05-12T00:26:36.314Z,8.80
2018-05-12T00:27:36.305Z,9.00
2018-05-12T00:28:36.305Z,9.20
2018-05-12T00:29:36.298Z,9.20
2018-05-12T00:30:36.295Z,9.40
2018-05-12T00:31:36.285Z,9.60
2018-05-12T00:32:36.284Z,9.60
2018-05-12T00:33:36.274Z,9.70
2018-05-12T00:34:36.271Z,9.90
2018-05-12T00:35:36.263Z,9.80
2018-05-12T00:36:36.258Z,9.10
2018-05-12T00:37:36.255Z,9.20
2018-05-12T00:38:36.250Z,10.30
2018-05-12T00:39:36.237Z,9.80
2018-05-12T00:40:36.247Z,10.10
2018-05-12T00:41:36.233Z,9.40
2018-05-12T00:42:36.233Z,10.40
2018-05-12T00:43:36.216Z,9.60
2018-05-12T00:44:36.212Z,9.90
2018-05-12T00:45:36.204Z,9.10
2018-05-12T00:46:36.200Z,9.80
2018-05-12T00:47:36.197Z,9.50
2018-05-12T00:48:36.197Z,9.50
2018-05-12T00:49:36.193Z,9.70
2018-05-12T00:50:36.187Z,9.40
2018-05-12T00:51:36.172Z,9.30
2018-05-12T00:52:36.165Z,9.70
2018-05-12T00:53:36.179Z,9.70
2018-05-12T00:54:36.166Z,9.90
2018-05-12T00:55:36.161Z,9.60
2018-05-12T00:56:36.143Z,9.30
2018-05-12T00:57:36.142Z,9.70
2018-05-12T00:58:36.136Z,9.80
2018-05-12T00:59:36.129Z,10.30
2018-05-12T01:00:36.120Z,9.60
2018-05-12T01:01:36.117Z,10.20
2018-05-12T01:02:36.111Z,9.90
2018-05-12T01:03:36.110Z,9.30
2018-05-12T01:04:36.101Z,9.50
2018-05-12T01:05:36.826Z,9.70
2018-05-12T01:06:36.089Z,9.70
2018-05-12T01:07:36.080Z,9.50
2018-05-12T01:08:36.075Z,9.50
2018-05-12T01:09:36.072Z,9.60
2018-05-12T01:10:36.066Z,9.90
2018-05-12T01:11:36.060Z,9.80
2018-05-12T01:12:36.824Z,10.30
2018-05-12T01:13:36.072Z,9.90
2018-05-12T01:14:36.049Z,9.50
2018-05-12T01:15:36.040Z,10.00
2018-05-12T01:16:36.032Z,9.40
2018-05-12T01:17:36.025Z,10.40
2018-05-12T01:18:36.018Z,9.90
2018-05-12T01:19:36.016Z,9.10
2018-05-12T01:20:36.005Z,9.90
2018-05-12T01:21:36.827Z,10.00
2018-05-12T01:22:35.994Z,10.30
2018-05-12T01:23:36.003Z,10.80
2018-05-12T01:24:35.987Z,10.00
2018-05-12T01:25:35.978Z,9.70
2018-05-12T01:26:35.971Z,11.00
2018-05-12T01:27:35.970Z,10.20
2018-05-12T01:28:35.968Z,10.00
2018-05-12T01:29:35.958Z,11.10
2018-05-12T01:30:35.954Z,10.10
2018-05-12T01:31:35.947Z,10.20
2018-05-12T01:32:35.943Z,10.00
2018-05-12T01:33:35.944Z,9.80
2018-05-12T01:34:35.930Z,10.70
2018-05-12T01:35:35.925Z,9.90
2018-05-12T01:36:35.920Z,10.70
2018-05-12T01:37:35.913Z,10.00
2018-05-12T01:38:35.909Z,10.70
2018-05-12T01:39:35.902Z,10.40
2018-05-12T01:40:35.930Z,10.60
2018-05-12T01:41:35.894Z,10.00
2018-05-12T01:42:35.883Z,10.70
2018-05-12T01:43:35.881Z,11.20
2018-05-12T01:44:36.835Z,10.00
2018-05-12T01:45:35.874Z,10.30
2018-05-12T01:46:35.863Z,10.30
2018-05-12T01:47:35.856Z,10.20
2018-05-12T01:48:35.852Z,10.20
2018-05-12T01:49:35.847Z,11.20
2018-05-12T01:50:35.838Z,10.90
2018-05-12T01:51:35.839Z,11.70
2018-05-12T01:52:35.832Z,10.90
2018-05-12T01:53:35.820Z,10.70
2018-05-12T01:54:35.817Z,11.00
2018-05-12T01:55:35.816Z,11.30
2018-05-12T01:56:35.806Z,11.30
2018-05-12T01:57:35.801Z,11.60
2018-05-12T01:58:35.810Z,11.10
2018-05-12T01:59:35.788Z,10.90
2018-05-12T02:00:35.786Z,11.40
2018-05-12T02:01:35.774Z,11.10
2018-05-12T02:02:35.769Z,11.10
2018-05-12T02:03:35.764Z,10.90
2018-05-12T02:04:35.772Z,11.00
2018-05-12T02:05:35.757Z,11.10
2018-05-12T02:06:35.746Z,11.10
2018-05-12T02:07:35.741Z,11.50
2018-05-12T02:08:35.739Z,11.00
2018-05-12T02:09:35.732Z,10.80
2018-05-12T02:10:35.728Z,11.60
2018-05-12T02:11:35.722Z,11.20
2018-05-12T02:12:35.718Z,11.40
2018-05-12T02:13:35.711Z,11.00
2018-05-12T02:14:35.704Z,11.50
2018-05-12T02:15:35.698Z,11.00
2018-05-12T02:16:36.343Z,11.10
2018-05-12T02:17:35.693Z,10.50
2018-05-12T02:18:35.680Z,11.10
2018-05-12T02:19:35.676Z,11.20
2018-05-12T02:20:35.668Z,11.40
2018-05-12T02:21:35.662Z,11.40
2018-05-12T02:22:35.656Z,11.20
2018-05-12T02:23:35.652Z,10.30
2018-05-12T02:24:35.649Z,9.70
2018-05-12T02:25:35.649Z,10.30
2018-05-12T02:26:35.637Z,10.70
2018-05-12T02:27:35.633Z,10.40
2018-05-12T02:28:35.633Z,11.60
2018-05-12T02:29:35.618Z,11.20
2018-05-12T02:30:35.613Z,10.90
2018-05-12T02:31:35.632Z,11.50
2018-05-12T02:32:35.609Z,11.00
2018-05-12T02:33:35.603Z,11.80
2018-05-12T02:34:35.590Z,10.90
2018-05-12T02:35:35.587Z,10.80
2018-05-12T02:36:35.596Z,11.30
2018-05-12T02:37:36.349Z,10.70
2018-05-12T02:38:35.569Z,11.00
2018-05-12T02:39:35.571Z,10.90
2018-05-12T02:40:35.562Z,11.20
2018-05-12T02:41:35.557Z,11.60
2018-05-12T02:42:35.548Z,11.00
2018-05-12T02:43:35.546Z,11.20
2018-05-12T02:44:35.540Z,11.90
2018-05-12T02:45:35.539Z,11.20
2018-05-12T02:46:35.533Z,10.90
2018-05-12T02:47:35.528Z,11.30
2018-05-12T02:48:35.514Z,11.30
2018-05-12T02:49:35.520Z,11.90
2018-05-12T02:50:35.502Z,11.50
2018-05-12T02:51:35.502Z,11.40
2018-05-12T02:52:35.490Z,11.50
2018-05-12T02:53:35.498Z,11.50
2018-05-12T02:54:35.484Z,11.80
2018-05-12T02:55:35.569Z,12.20
2018-05-12T02:56:35.468Z,12.20
2018-05-12T02:57:35.465Z,11.90
2018-05-12T02:58:35.463Z,11.90
2018-05-12T02:59:35.457Z,11.10
2018-05-12T03:00:35.452Z,12.60
2018-05-12T03:01:35.445Z,13.20
2018-05-12T03:02:35.436Z,12.30
2018-05-12T03:03:35.427Z,13.40
2018-05-12T03:04:35.423Z,14.00
2018-05-12T03:05:35.425Z,13.50
2018-05-12T03:06:35.420Z,13.80
2018-05-12T03:07:35.409Z,13.50
2018-05-12T03:08:35.411Z,13.20
2018-05-12T03:09:35.398Z,12.90
2018-05-12T03:10:35.390Z,12.70
2018-05-12T03:11:35.390Z,13.40
2018-05-12T03:12:35.382Z,13.40
2018-05-12T03:13:35.378Z,13.00
2018-05-12T03:14:35.373Z,12.60
2018-05-12T03:15:35.369Z,12.90
2018-05-12T03:16:35.355Z,12.10
2018-05-12T03:17:35.349Z,12.60
2018-05-12T03:18:35.350Z,13.50
2018-05-12T03:19:35.343Z,13.00
2018-05-12T03:20:35.336Z,13.30
2018-05-12T03:21:35.329Z,13.90
2018-05-12T03:22:35.326Z,13.00
2018-05-12T03:23:35.314Z,13.90
2018-05-12T03:24:35.317Z,13.90
2018-05-12T03:25:35.306Z,15.60
2018-05-12T03:26:35.315Z,13.40
2018-05-12T03:27:35.294Z,13.50
2018-05-12T03:28:35.293Z,13.60
2018-05-12T03:29:35.286Z,14.00
2018-05-12T03:30:35.277Z,13.70
2018-05-12T03:31:35.268Z,14.60
2018-05-12T03:32:35.268Z,15.10
2018-05-12T03:33:35.260Z,14.40
2018-05-12T03:34:35.256Z,14.50
2018-05-12T03:35:35.246Z,13.50
2018-05-12T03:36:35.250Z,14.10
2018-05-12T03:37:35.231Z,13.70
2018-05-12T03:38:35.230Z,15.20
2018-05-12T03:39:35.221Z,14.40
2018-05-12T03:40:35.220Z,14.30
2018-05-12T03:41:35.217Z,15.20
2018-05-12T03:42:35.210Z,15.00
2018-05-12T03:43:35.193Z,14.60
2018-05-12T03:44:35.200Z,13.90
2018-05-12T03:45:35.181Z,13.50
2018-05-12T03:46:35.175Z,14.70
2018-05-12T03:47:35.171Z,13.50
2018-05-12T03:48:35.164Z,13.90
2018-05-12T03:49:35.162Z,14.80
2018-05-12T03:50:35.161Z,14.70
2018-05-12T03:51:35.154Z,14.60
2018-05-12T03:52:35.141Z,15.30
2018-05-12T03:53:35.136Z,14.90
2018-05-12T03:54:35.128Z,14.20
2018-05-12T03:55:35.121Z,14.40
2018-05-12T03:56:35.126Z,14.30
2018-05-12T03:57:35.122Z,13.50
2018-05-12T03:58:35.109Z,14.20
2018-05-12T03:59:35.108Z,14.30
2018-05-12T04:00:35.102Z,13.50
2018-05-12T04:01:35.088Z,14.30
2018-05-12T04:02:35.078Z,13.90
2018-05-12T04:03:35.075Z,14.20
2018-05-12T04:04:35.066Z,14.10
2018-05-12T04:05:35.067Z,13.90
2018-05-12T04:06:35.060Z,13.90
2018-05-12T04:07:35.055Z,14.00
2018-05-12T04:08:35.087Z,14.40
2018-05-12T04:09:35.033Z,13.70
2018-05-12T04:10:35.029Z,14.10
2018-05-12T04:11:35.026Z,14.30
2018-05-12T04:12:35.013Z,14.90
2018-05-12T04:13:35.008Z,14.60
2018-05-12T04:14:35.013Z,14.10
2018-05-12T04:15:35.002Z,14.20
2018-05-12T04:16:34.993Z,15.10
2018-05-12T04:17:34.989Z,14.30
2018-05-12T04:18:34.979Z,15.10
2018-05-12T04:19:34.984Z,14.80
2018-05-12T04:20:34.967Z,14.90
2018-05-12T04:21:34.961Z,14.30
2018-05-12T04:22:34.955Z,14.50
2018-05-12T04:23:34.953Z,15.70
2018-05-12T04:24:34.941Z,14.80
2018-05-12T04:25:34.932Z,14.40
2018-05-12T04:26:34.928Z,15.30
2018-05-12T04:27:34.943Z,15.80
2018-05-12T04:28:34.922Z,16.00
2018-05-12T04:29:34.917Z,15.20
2018-05-12T04:30:34.905Z,16.30
2018-05-12T04:31:34.896Z,15.70
2018-05-12T04:32:34.894Z,14.90
2018-05-12T04:33:34.892Z,14.90
2018-05-12T04:34:34.886Z,15.20
2018-05-12T04:35:34.873Z,15.50
2018-05-12T04:36:34.871Z,14.70
2018-05-12T04:37:34.903Z,15.20
2018-05-12T04:38:34.852Z,14.60
2018-05-12T04:39:34.845Z,15.00
2018-05-12T04:40:34.839Z,15.50
2018-05-12T04:41:34.829Z,15.70
2018-05-12T04:42:34.833Z,14.60
2018-05-12T04:43:34.857Z,14.80
2018-05-12T04:44:34.821Z,13.90
2018-05-12T04:45:34.820Z,14.60
2018-05-12T04:46:34.816Z,14.30
2018-05-12T04:47:34.804Z,14.80
2018-05-12T04:48:34.801Z,14.90
2018-05-12T04:49:34.787Z,14.90
2018-05-12T04:50:34.798Z,14.50
2018-05-12T04:51:34.785Z,15.10
2018-05-12T04:52:34.782Z,14.40
2018-05-12T04:53:34.766Z,13.60
2018-05-12T04:54:34.761Z,13.90
2018-05-12T04:55:34.763Z,15.10
2018-05-12T04:56:34.751Z,14.00
2018-05-12T04:57:34.751Z,13.60
2018-05-12T04:58:34.736Z,13.70
2018-05-12T04:59:34.733Z,13.10
2018-05-12T05:00:34.716Z,13.50
2018-05-12T05:01:34.714Z,13.10
2018-05-12T05:02:34.706Z,13.20
2018-05-12T05:03:34.702Z,13.00
2018-05-12T05:04:34.702Z,13.30
2018-05-12T05:05:34.688Z,13.40
2018-05-12T05:06:34.693Z,13.30
2018-05-12T05:07:34.685Z,13.20
2018-05-12T05:08:34.668Z,13.10
2018-05-12T05:09:34.671Z,12.80
2018-05-12T05:10:34.666Z,13.10
2018-05-12T05:11:34.656Z,12.90
2018-05-12T05:12:34.655Z,12.20
2018-05-12T05:13:34.641Z,12.60
2018-05-12T05:14:34.637Z,13.40
2018-05-12T05:15:34.635Z,12.90
2018-05-12T05:16:34.635Z,12.50
2018-05-12T05:17:34.626Z,12.50
2018-05-12T05:18:34.626Z,12.30
2018-05-12T05:19:34.611Z,11.80
2018-05-12T05:20:34.612Z,12.40
2018-05-12T05:21:34.609Z,12.10
2018-05-12T05:22:34.600Z,12.50
2018-05-12T05:23:34.596Z,13.00
2018-05-12T05:24:34.590Z,12.60
2018-05-12T05:25:34.589Z,12.70
2018-05-12T05:26:34.586Z,12.10
2018-05-12T05:27:34.585Z,12.10
2018-05-12T05:28:34.574Z,11.80
2018-05-12T05:29:34.569Z,11.60
2018-05-12T05:30:34.566Z,12.00
2018-05-12T05:31:34.576Z,11.60
2018-05-12T05:32:34.559Z,12.00
2018-05-12T05:33:34.552Z,11.20
2018-05-12T05:34:34.552Z,11.50
2018-05-12T05:35:34.566Z,11.20
2018-05-12T05:36:34.544Z,11.80
2018-05-12T05:37:34.545Z,11.60
2018-05-12T05:38:34.544Z,11.60
2018-05-12T05:39:34.535Z,11.90
2018-05-12T05:40:34.526Z,11.50
2018-05-12T05:41:34.568Z,11.50
2018-05-12T05:42:34.531Z,11.60
2018-05-12T05:43:34.525Z,11.30
2018-05-12T05:44:34.517Z,11.70
2018-05-12T05:45:34.515Z,12.00
2018-05-12T05:46:34.512Z,11.00
2018-05-12T05:47:34.514Z,11.50
2018-05-12T05:48:34.501Z,11.50
2018-05-12T05:49:34.507Z,11.70
2018-05-12T05:50:34.507Z,10.90
2018-05-12T05:51:34.496Z,11.60
2018-05-12T05:52:34.493Z,11.20
2018-05-12T05:53:34.494Z,11.60
2018-05-12T05:54:34.490Z,11.20
2018-05-12T05:55:34.488Z,11.20
2018-05-12T05:56:34.481Z,11.20
2018-05-12T05:57:34.490Z,11.00
2018-05-12T05:58:34.572Z,11.00
2018-05-12T05:59:34.483Z,11.20
2018-05-12T06:00:34.480Z,10.90
2018-05-12T06:01:34.474Z,11.40
2018-05-12T06:02:34.468Z,10.90
2018-05-12T06:03:34.469Z,11.30
2018-05-12T06:04:34.465Z,10.90
2018-05-12T06:05:34.465Z,11.20
2018-05-12T06:06:34.495Z,10.60
2018-05-12T06:07:34.480Z,10.90
2018-05-12T06:08:34.462Z,10.50
2018-05-12T06:09:34.460Z,10.70
2018-05-12T06:10:34.467Z,10.70
2018-05-12T06:11:34.457Z,10.20
2018-05-12T06:12:34.456Z,11.10
2018-05-12T06:13:34.463Z,10.60
2018-05-12T06:14:34.462Z,10.80
2018-05-12T06:15:34.449Z,10.80
2018-05-12T06:16:34.447Z,10.40
2018-05-12T06:17:34.447Z,10.40
2018-05-12T06:18:34.452Z,11.20
2018-05-12T06:19:34.448Z,9.90
2018-05-12T06:20:34.443Z,10.10
2018-05-12T06:21:34.444Z,11.20
2018-05-12T06:22:34.441Z,10.80
2018-05-12T06:23:34.443Z,11.00
2018-05-12T06:24:34.439Z,11.20
2018-05-12T06:25:34.507Z,11.10
2018-05-12T06:26:34.451Z,10.50
2018-05-12T06:27:34.433Z,10.60
2018-05-12T06:28:34.446Z,11.10
2018-05-12T06:29:34.436Z,11.20
2018-05-12T06:30:34.438Z,11.10
2018-05-12T06:31:34.431Z,10.80
2018-05-12T06:32:34.429Z,11.10
2018-05-12T06:33:34.512Z,11.10
2018-05-12T06:34:34.426Z,11.30
2018-05-12T06:35:34.429Z,10.80
2018-05-12T06:36:34.428Z,10.40
2018-05-12T06:37:34.427Z,10.90
2018-05-12T06:38:34.540Z,10.80
2018-05-12T06:39:34.425Z,10.00
2018-05-12T06:40:34.421Z,10.80
2018-05-12T06:41:34.430Z,10.60
2018-05-12T06:42:34.420Z,10.80
2018-05-12T06:43:34.421Z,10.60
2018-05-12T06:44:34.420Z,10.90
2018-05-12T06:45:34.418Z,10.60
2018-05-12T06:46:34.422Z,10.10
2018-05-12T06:47:34.416Z,10.00
2018-05-12T06:48:34.417Z,10.10
2018-05-12T06:49:34.421Z,9.90
2018-05-12T06:50:34.418Z,9.70
2018-05-12T06:51:34.416Z,9.60
2018-05-12T06:52:34.416Z,9.70
2018-05-12T06:53:34.413Z,10.30
2018-05-12T06:54:34.420Z,9.90
2018-05-12T06:55:34.421Z,10.70
2018-05-12T06:56:34.417Z,10.70
2018-05-12T06:57:34.421Z,10.70
2018-05-12T06:58:34.414Z,10.30
2018-05-12T06:59:34.416Z,10.10
2018-05-12T07:00:34.417Z,9.70
2018-05-12T07:01:34.447Z,9.60
2018-05-12T07:02:34.419Z,10.40
2018-05-12T07:03:34.428Z,10.00
2018-05-12T07:04:34.430Z,9.80
2018-05-12T07:05:34.423Z,10.30
2018-05-12T07:06:34.429Z,9.80
2018-05-12T07:07:34.436Z,10.20
2018-05-12T07:08:34.428Z,9.20
2018-05-12T07:09:34.422Z,9.80
2018-05-12T07:10:34.426Z,9.50
2018-05-12T07:11:34.428Z,9.70
2018-05-12T07:12:34.431Z,9.90
2018-05-12T07:13:34.430Z,8.30
2018-05-12T07:14:34.969Z,10.20
2018-05-12T07:15:34.446Z,9.10
2018-05-12T07:16:34.448Z,9.70
2018-05-12T07:17:34.443Z,9.50
2018-05-12T07:18:34.453Z,9.50
2018-05-12T07:19:34.477Z,9.80
2018-05-12T07:20:34.450Z,10.20
2018-05-12T07:21:34.487Z,10.30
2018-05-12T07:22:34.975Z,10.40
2018-05-12T07:23:34.468Z,9.60
2018-05-12T07:24:34.976Z,9.80
2018-05-12T07:25:34.464Z,9.50
2018-05-12T07:26:34.459Z,10.60
2018-05-12T07:27:34.463Z,9.10
2018-05-12T07:28:34.473Z,9.10
2018-05-12T07:29:34.542Z,9.10
2018-05-12T07:30:34.473Z,9.00
2018-05-12T07:31:34.474Z,8.70
2018-05-12T07:32:34.478Z,9.30
2018-05-12T07:33:34.485Z,9.60
2018-05-12T07:34:34.484Z,9.30
2018-05-12T07:35:34.492Z,9.50
2018-05-12T07:36:34.493Z,11.70
2018-05-12T07:37:34.643Z,10.80
2018-05-12T07:38:34.497Z,9.30
2018-05-12T07:39:34.525Z,9.10
2018-05-12T07:40:34.501Z,9.00
2018-05-12T07:41:34.512Z,8.90
2018-05-12T07:42:34.533Z,9.60
2018-05-12T07:43:34.536Z,8.40
2018-05-12T07:44:34.519Z,8.30
2018-05-12T07:45:34.621Z,9.00
2018-05-12T07:46:34.528Z,9.20
2018-05-12T07:47:34.532Z,9.40
2018-05-12T07:48:34.538Z,8.50
2018-05-12T07:49:34.536Z,9.60
2018-05-12T07:50:34.544Z,9.50
2018-05-12T07:51:34.556Z,9.00
2018-05-12T07:52:34.552Z,8.90
2018-05-12T07:53:34.555Z,9.50
2018-05-12T07:54:34.558Z,8.60
2018-05-12T07:55:34.562Z,8.90
2018-05-12T07:56:34.570Z,8.10
2018-05-12T07:57:34.571Z,9.00
2018-05-12T07:58:34.572Z,8.60
2018-05-12T07:59:34.583Z,7.80
2018-05-12T08:00:34.585Z,8.00
2018-05-12T08:01:34.595Z,8.20
2018-05-12T08:02:34.604Z,8.30
2018-05-12T08:03:34.660Z,7.80
2018-05-12T08:04:34.641Z,7.00
2018-05-12T08:05:34.616Z,7.70
2018-05-12T08:06:34.617Z,8.10
2018-05-12T08:07:34.625Z,7.90
2018-05-12T08:08:34.626Z,7.60
2018-05-12T08:09:34.635Z,7.50
2018-05-12T08:10:34.638Z,7.80
2018-05-12T08:11:34.650Z,7.30
2018-05-12T08:12:34.652Z,7.80
2018-05-12T08:13:34.657Z,8.10
2018-05-12T08:14:34.663Z,7.00
2018-05-12T08:15:34.669Z,7.60
2018-05-12T08:16:34.676Z,7.40
2018-05-12T08:17:34.679Z,7.60
2018-05-12T08:18:34.687Z,7.60
2018-05-12T08:19:34.695Z,7.00
2018-05-12T08:20:34.793Z,6.70
2018-05-12T08:21:34.707Z,7.40
2018-05-12T08:22:34.716Z,7.30
2018-05-12T08:23:34.724Z,7.70
2018-05-12T08:24:34.729Z,7.60
2018-05-12T08:25:34.751Z,7.30
2018-05-12T08:26:34.743Z,7.70
2018-05-12T08:27:34.753Z,7.60
2018-05-12T08:28:34.757Z,7.30
2018-05-12T08:29:34.765Z,7.30
2018-05-12T08:30:34.770Z,7.50
2018-05-12T08:31:34.787Z,7.50
2018-05-12T08:32:34.784Z,6.80
2018-05-12T08:33:34.799Z,6.60
2018-05-12T08:34:34.801Z,6.90
2018-05-12T08:35:34.812Z,7.00
2018-05-12T08:36:34.817Z,6.60
2018-05-12T08:37:34.822Z,7.60
2018-05-12T08:38:34.835Z,6.50
2018-05-12T08:39:34.840Z,7.10
2018-05-12T08:40:34.896Z,7.60
2018-05-12T08:41:34.866Z,7.20
2018-05-12T08:42:34.870Z,7.20
2018-05-12T08:43:34.873Z,7.40
2018-05-12T08:44:34.883Z,6.70
2018-05-12T08:45:34.891Z,7.10
2018-05-12T08:46:34.901Z,6.90
2018-05-12T08:47:34.905Z,7.00
2018-05-12T08:48:34.913Z,6.70
2018-05-12T08:49:34.921Z,6.20
2018-05-12T08:50:34.928Z,5.90
2018-05-12T08:51:34.940Z,6.10
2018-05-12T08:52:34.946Z,5.80
2018-05-12T08:53:34.957Z,5.70
2018-05-12T08:54:34.971Z,5.50
2018-05-12T08:55:34.976Z,6.00
2018-05-12T08:56:34.983Z,7.00
2018-05-12T08:57:34.993Z,5.80
2018-05-12T08:58:34.999Z,5.30
2018-05-12T08:59:35.011Z,5.60
2018-05-12T09:00:35.020Z,4.90
2018-05-12T09:01:35.027Z,4.10
2018-05-12T09:02:35.041Z,4.40
2018-05-12T09:03:35.056Z,4.90
2018-05-12T09:04:35.052Z,4.40
2018-05-12T09:05:35.059Z,3.60
2018-05-12T09:06:35.070Z,4.40
2018-05-12T09:07:35.080Z,4.50
2018-05-12T09:08:35.083Z,4.50
2018-05-12T09:09:35.095Z,4.40
2018-05-12T09:10:35.101Z,4.50
2018-05-12T09:11:35.110Z,4.10
2018-05-12T09:12:35.123Z,5.40
2018-05-12T09:13:35.155Z,4.90
2018-05-12T09:14:35.142Z,4.90
2018-05-12T09:15:35.150Z,4.40
2018-05-12T09:16:35.157Z,4.30
2018-05-12T09:17:35.165Z,4.90
2018-05-12T09:18:35.176Z,5.00
2018-05-12T09:19:35.195Z,5.00
2018-05-12T09:20:35.196Z,4.50
2018-05-12T09:21:35.206Z,4.60
2018-05-12T09:22:35.230Z,4.40
2018-05-12T09:23:35.333Z,4.90
2018-05-12T09:24:35.233Z,4.50
2018-05-12T09:25:35.310Z,4.40
2018-05-12T09:26:35.253Z,4.40
2018-05-12T09:27:35.264Z,4.10
2018-05-12T09:28:35.267Z,4.40
2018-05-12T09:29:35.277Z,4.20
2018-05-12T09:30:35.291Z,4.40
2018-05-12T09:31:35.305Z,4.70
2018-05-12T09:32:35.301Z,4.60
2018-05-12T09:33:35.316Z,4.90
2018-05-12T09:34:35.317Z,4.90
2018-05-12T09:35:35.343Z,4.60
2018-05-12T09:36:35.337Z,4.50
2018-05-12T09:37:35.351Z,4.00
2018-05-12T09:38:35.357Z,3.80
2018-05-12T09:39:35.366Z,4.40
2018-05-12T09:40:35.376Z,5.10
2018-05-12T09:41:35.383Z,5.30
2018-05-12T09:42:35.434Z,5.80
2018-05-12T09:43:35.405Z,5.60
2018-05-12T09:44:35.425Z,5.50
2018-05-12T09:45:35.423Z,5.30
2018-05-12T09:46:35.532Z,5.80
2018-05-12T09:47:35.555Z,6.10
2018-05-12T09:48:35.462Z,5.60
2018-05-12T09:49:35.517Z,5.70
2018-05-12T09:50:35.465Z,4.90
2018-05-12T09:51:35.472Z,5.10
2018-05-12T09:52:35.486Z,5.30
2018-05-12T09:53:35.490Z,5.00
2018-05-12T09:54:35.500Z,4.80
2018-05-12T09:55:35.509Z,4.70
2018-05-12T09:56:35.516Z,4.90
2018-05-12T09:57:35.527Z,4.80
2018-05-12T09:58:35.533Z,4.40
2018-05-12T09:59:35.568Z,4.60
2018-05-12T10:00:35.552Z,4.60
2018-05-12T10:01:35.559Z,5.00
2018-05-12T10:02:35.575Z,4.90
2018-05-12T10:03:35.578Z,5.40
2018-05-12T10:04:35.585Z,4.80
2018-05-12T10:05:35.596Z,5.20
2018-05-12T10:06:35.598Z,6.10
2018-05-12T10:07:35.611Z,5.10
2018-05-12T10:08:35.625Z,4.80
2018-05-12T10:09:35.687Z,5.70
2018-05-12T10:10:35.640Z,4.80
2018-05-12T10:11:35.644Z,5.20
2018-05-12T10:12:35.647Z,5.60
2018-05-12T10:13:35.656Z,5.70
2018-05-12T10:14:35.671Z,5.20
2018-05-12T10:15:35.702Z,5.50
2018-05-12T10:16:35.688Z,5.30
2018-05-12T10:17:35.689Z,4.80
2018-05-12T10:18:35.699Z,4.20
2018-05-12T10:19:35.719Z,4.80
2018-05-12T10:20:35.711Z,4.50
2018-05-12T10:21:35.714Z,4.80
2018-05-12T10:22:35.740Z,4.40
2018-05-12T10:23:35.732Z,4.40
2018-05-12T10:24:35.736Z,4.20
2018-05-12T10:25:35.744Z,4.70
2018-05-12T10:26:35.747Z,5.00
2018-05-12T10:27:35.759Z,4.30
2018-05-12T10:28:35.765Z,5.70
2018-05-12T10:29:35.773Z,5.20
2018-05-12T10:30:35.779Z,5.00
2018-05-12T10:31:35.785Z,6.40
2018-05-12T10:32:35.805Z,6.00
2018-05-12T10:33:35.798Z,5.30
2018-05-12T10:34:35.806Z,4.90
2018-05-12T10:35:35.815Z,4.20
2018-05-12T10:36:35.828Z,4.30
2018-05-12T10:37:35.831Z,5.40
2018-05-12T10:38:35.838Z,4.80
2018-05-12T10:39:36.622Z,5.40
2018-05-12T10:40:35.860Z,5.60
2018-05-12T10:41:35.867Z,5.50
2018-05-12T10:42:35.930Z,4.90
2018-05-12T10:43:35.942Z,5.70
2018-05-12T10:44:35.889Z,5.40
2018-05-12T10:45:35.897Z,5.20
2018-05-12T10:46:35.908Z,5.40
2018-05-12T10:47:35.915Z,5.20
2018-05-12T10:48:35.923Z,5.00
2018-05-12T10:49:35.934Z,5.40
2018-05-12T10:50:35.944Z,4.70
2018-05-12T10:51:35.953Z,4.80
2018-05-12T10:52:35.960Z,5.70
2018-05-12T10:53:35.963Z,4.60
2018-05-12T10:54:35.976Z,4.20
2018-05-12T10:55:35.991Z,4.30
2018-05-12T10:56:36.011Z,4.50
2018-05-12T10:57:36.012Z,4.30
2018-05-12T10:58:36.010Z,4.30
2018-05-12T10:59:36.020Z,5.20
2018-05-12T11:00:36.034Z,4.50
2018-05-12T11:01:36.033Z,4.10
2018-05-12T11:02:36.042Z,4.40
2018-05-12T11:03:36.066Z,4.30
2018-05-12T11:04:36.064Z,3.70
2018-05-12T11:05:36.065Z,4.20
2018-05-12T11:06:36.076Z,4.30
2018-05-12T11:07:36.087Z,4.00
2018-05-12T11:08:36.090Z,4.00
2018-05-12T11:09:36.154Z,4.80
2018-05-12T11:10:36.115Z,4.90
2018-05-12T11:11:36.123Z,4.70
2018-05-12T11:12:36.127Z,4.30
2018-05-12T11:13:36.133Z,4.80
2018-05-12T11:14:36.140Z,5.10
2018-05-12T11:15:36.151Z,5.60
2018-05-12T11:16:36.162Z,5.20
2018-05-12T11:17:36.169Z,4.90
2018-05-12T11:18:36.183Z,5.00
2018-05-12T11:19:36.188Z,4.60
2018-05-12T11:20:36.192Z,4.90
2018-05-12T11:21:36.217Z,5.60
2018-05-12T11:22:36.223Z,5.50
2018-05-12T11:23:36.215Z,5.10
2018-05-12T11:24:36.227Z,4.60
2018-05-12T11:25:36.233Z,5.10
2018-05-12T11:26:36.296Z,5.70
2018-05-12T11:27:36.256Z,4.60
2018-05-12T11:28:36.267Z,4.90
2018-05-12T11:29:36.273Z,4.80
2018-05-12T11:30:36.277Z,5.00
2018-05-12T11:31:36.282Z,5.10
2018-05-12T11:32:36.295Z,5.00
2018-05-12T11:33:36.295Z,5.50
2018-05-12T11:34:36.314Z,5.20
2018-05-12T11:35:36.310Z,5.80
2018-05-12T11:36:36.317Z,5.10
2018-05-12T11:37:36.324Z,4.50
2018-05-12T11:38:36.365Z,5.50
2018-05-12T11:39:36.358Z,6.20
2018-05-12T11:40:36.353Z,6.20
2018-05-12T11:41:36.358Z,5.90
2018-05-12T11:42:36.364Z,5.90
2018-05-12T11:43:36.380Z,5.50
2018-05-12T11:44:36.530Z,4.30
2018-05-12T11:45:36.391Z,4.60
2018-05-12T11:46:36.406Z,4.70
2018-05-12T11:47:36.400Z,5.30
2018-05-12T11:48:36.408Z,5.00
2018-05-12T11:49:36.423Z,5.50
2018-05-12T11:50:36.441Z,5.00
2018-05-12T11:51:36.439Z,5.60
2018-05-12T11:52:36.446Z,5.90
2018-05-12T11:53:36.454Z,5.90
2018-05-12T11:54:36.455Z,5.70
2018-05-12T11:55:36.474Z,5.50
2018-05-12T11:56:36.483Z,5.40
2018-05-12T11:57:36.478Z,5.70
2018-05-12T11:58:36.488Z,5.40
2018-05-12T11:59:36.501Z,5.80
2018-05-12T12:00:36.507Z,6.10
2018-05-12T12:01:36.514Z,5.80
2018-05-12T12:02:36.585Z,5.70
2018-05-12T12:03:36.556Z,5.70
2018-05-12T12:04:36.535Z,5.00
2018-05-12T12:05:36.537Z,5.50
2018-05-12T12:06:36.543Z,5.60
2018-05-12T12:07:36.552Z,5.40
2018-05-12T12:08:36.561Z,5.70
2018-05-12T12:09:36.581Z,5.90
2018-05-12T12:10:36.574Z,5.80
2018-05-12T12:11:36.599Z,5.00
2018-05-12T12:12:36.592Z,6.00
2018-05-12T12:13:36.590Z,6.50
2018-05-12T12:14:36.601Z,5.10
2018-05-12T12:15:36.605Z,6.00
2018-05-12T12:16:36.709Z,5.40
2018-05-12T12:17:36.634Z,5.20
2018-05-12T12:18:36.638Z,4.40
2018-05-12T12:19:36.635Z,4.90
2018-05-12T12:20:36.643Z,4.80
2018-05-12T12:21:36.651Z,4.80
2018-05-12T12:22:36.660Z,4.50
2018-05-12T12:23:36.664Z,4.90
2018-05-12T12:24:36.679Z,4.90
2018-05-12T12:25:36.679Z,4.80
2018-05-12T12:26:36.696Z,5.10
2018-05-12T12:27:36.701Z,4.80
2018-05-12T12:28:36.704Z,4.50
2018-05-12T12:29:36.709Z,4.70
2018-05-12T12:30:36.722Z,4.30
2018-05-12T12:31:36.736Z,4.60
2018-05-12T12:32:36.737Z,4.40
2018-05-12T12:33:36.737Z,4.10
2018-05-12T12:34:36.751Z,4.50
2018-05-12T12:35:36.751Z,4.20
2018-05-12T12:36:36.759Z,4.30
2018-05-12T12:37:36.774Z,4.60
2018-05-12T12:38:36.775Z,4.40
2018-05-12T12:39:36.783Z,4.70
2018-05-12T12:40:36.786Z,4.30
2018-05-12T12:41:36.793Z,4.10
2018-05-12T12:42:36.805Z,4.00
2018-05-12T12:43:36.811Z,4.10
2018-05-12T12:44:36.817Z,4.30
2018-05-12T12:45:36.824Z,4.10
2018-05-12T12:46:36.835Z,4.60
2018-05-12T12:47:36.835Z,4.60
2018-05-12T12:48:36.841Z,5.00
2018-05-12T12:49:36.847Z,4.30
2018-05-12T12:50:36.855Z,4.40
2018-05-12T12:51:36.869Z,3.90
2018-05-12T12:52:36.871Z,4.50
2018-05-12T12:53:36.876Z,4.50
2018-05-12T12:54:36.908Z,3.70
2018-05-12T12:55:36.892Z,4.40
2018-05-12T12:56:36.909Z,4.10
2018-05-12T12:57:36.899Z,4.20
2018-05-12T12:58:36.920Z,3.90
2018-05-12T12:59:36.915Z,4.00
2018-05-12T13:00:36.924Z,3.90
2018-05-12T13:01:36.930Z,3.50
2018-05-12T13:02:36.937Z,3.90
2018-05-12T13:03:36.937Z,4.40
2018-05-12T13:04:36.944Z,3.90
2018-05-12T13:05:36.959Z,3.80
2018-05-12T13:06:36.962Z,3.70